Time;durP1;ratioP1;P1;durP2;ratioP2;P2;SDS_P1;SDS_P2;PMS_P1;PMS_P2;Temp;Humidity;BMP_temperature;BMP_pressure;BME280_temperature;BME280_humidity;BME280_pressure;Samples;Min_cycle;Max_cycle;Signal;HPM_P1;HPM_P2
2021/08/22 00:00:16;;;;;;;5.72;1.60;;;;;;;16.33;84.97;101625.31;4982869;28;20745;-77
2021/08/22 00:02:42;;;;;;;1.70;1.60;;;;;;;16.27;85.62;101619.81;4966348;28;20149;-75
2021/08/22 00:05:08;;;;;;;3.35;2.08;;;;;;;16.19;86.15;101618.00;4987566;28;20030;-76
2021/08/22 00:07:34;;;;;;;4.78;1.98;;;;;;;16.21;86.04;101623.13;4987136;28;20124;-77
2021/08/22 00:10:00;;;;;;;2.47;2.03;;;;;;;16.20;85.11;101621.47;4969509;28;20459;-75
2021/08/22 00:12:25;;;;;;;2.50;1.75;;;;;;;16.13;86.10;101622.13;4987120;28;20513;-76
2021/08/22 00:14:51;;;;;;;3.80;1.90;;;;;;;16.13;86.41;101618.66;4972522;28;20022;-77
2021/08/22 00:17:17;;;;;;;2.67;1.80;;;;;;;15.98;86.91;101617.63;4970101;28;20103;-73
2021/08/22 00:19:44;;;;;;;2.40;2.00;;;;;;;16.07;86.33;101619.31;4971225;28;20492;-76
2021/08/22 00:22:10;;;;;;;2.75;2.20;;;;;;;16.05;85.56;101611.53;4972076;28;20033;-75
2021/08/22 00:24:36;;;;;;;3.10;1.83;;;;;;;16.05;85.90;101611.53;5002925;28;20046;-76
2021/08/22 00:27:02;;;;;;;4.50;1.98;;;;;;;16.03;86.87;101617.94;4972461;28;20045;-75
2021/08/22 00:29:28;;;;;;;6.47;1.90;;;;;;;16.01;85.72;101610.19;4972097;28;20141;-74
2021/08/22 00:31:53;;;;;;;4.93;1.88;;;;;;;16.00;86.95;101613.81;4993449;28;20033;-76
2021/08/22 00:34:19;;;;;;;4.38;2.30;;;;;;;15.98;86.80;101610.50;4979643;28;20515;-77
2021/08/22 00:36:44;;;;;;;4.57;2.30;;;;;;;16.00;85.99;101605.06;4978324;28;20204;-74
2021/08/22 00:39:10;;;;;;;4.70;2.10;;;;;;;16.00;86.22;101605.88;4978438;28;20399;-74
2021/08/22 00:41:38;;;;;;;2.95;2.00;;;;;;;15.93;87.14;101595.09;5008624;28;20514;-76
2021/08/22 00:44:04;;;;;;;2.78;2.17;;;;;;;15.95;87.43;101601.06;4996968;28;20444;-76
2021/08/22 00:46:30;;;;;;;5.22;2.47;;;;;;;15.98;86.98;101597.28;4973946;28;20077;-73
2021/08/22 00:48:56;;;;;;;6.05;2.08;;;;;;;15.91;86.79;101593.59;5009173;28;20038;-76
2021/08/22 00:51:22;;;;;;;6.55;2.50;;;;;;;15.89;86.86;101587.66;5006788;28;20034;-75
2021/08/22 00:53:48;;;;;;;4.82;2.17;;;;;;;15.90;86.31;101589.31;4990781;28;20068;-75
2021/08/22 00:56:15;;;;;;;3.65;2.00;;;;;;;15.93;87.39;101583.69;4975691;28;20030;-75
2021/08/22 00:58:42;;;;;;;2.67;1.90;;;;;;;15.91;85.24;101586.50;4988137;28;20038;-77
2021/08/22 01:01:15;;;;;;;6.05;2.03;;;;;;;15.91;86.61;101597.06;5006377;28;20040;-75
2021/08/22 01:03:45;;;;;;;;;;;;;;;15.92;86.12;101582.03;4997753;28;20778;-76
2021/08/22 01:06:22;;;;;;;2.78;2.00;;;;;;;15.85;86.45;101581.84;4983261;28;19923;-77
2021/08/22 01:08:57;;;;;;;3.78;1.90;;;;;;;15.80;86.38;101581.50;5005237;28;20080;-76
2021/08/22 01:11:25;;;;;;;7.00;1.90;;;;;;;15.81;85.29;101575.22;4972635;28;20038;-77
2021/08/22 01:13:57;;;;;;;3.10;2.00;;;;;;;15.81;86.46;101585.81;5006178;28;20139;-76
2021/08/22 01:16:28;;;;;;;1.73;1.63;;;;;;;15.75;86.70;101574.06;4990596;28;20046;-77
2021/08/22 01:18:57;;;;;;;2.08;1.60;;;;;;;15.76;86.29;101575.72;4972337;28;20041;-77
2021/08/22 01:21:23;;;;;;;3.47;1.70;;;;;;;15.67;86.45;101568.72;5007466;28;20125;-77
2021/08/22 01:23:55;;;;;;;4.22;1.70;;;;;;;15.62;87.39;101567.53;4985074;28;20053;-77
2021/08/22 01:26:28;;;;;;;6.72;1.92;;;;;;;15.55;87.07;101554.94;4989619;28;20030;-77
2021/08/22 01:28:55;;;;;;;2.17;1.73;;;;;;;15.56;86.95;101561.88;4988302;28;20042;-77
2021/08/22 01:31:32;;;;;;;2.83;1.60;;;;;;;15.62;86.56;101559.59;4974277;28;20038;-76
2021/08/22 01:34:00;;;;;;;2.83;1.67;;;;;;;15.63;86.06;101553.31;4991665;28;20080;-76
2021/08/22 01:36:27;;;;;;;1.70;1.60;;;;;;;15.56;85.95;101548.66;4971058;28;20030;-76
2021/08/22 01:38:54;;;;;;;3.13;1.85;;;;;;;15.52;85.85;101544.69;4992237;28;20041;-77
2021/08/22 01:41:23;;;;;;;3.63;1.40;;;;;;;15.52;87.01;101539.41;4969796;28;20037;-77
2021/08/22 01:43:51;;;;;;;3.35;1.80;;;;;;;15.48;86.75;101545.16;4975450;28;20029;-77
2021/08/22 01:46:18;;;;;;;3.10;1.70;;;;;;;15.42;86.91;101543.97;4956532;28;20042;-77
2021/08/22 01:48:44;;;;;;;4.35;2.15;;;;;;;15.31;87.56;101542.47;5007501;28;20034;-76
2021/08/22 01:51:10;;;;;;;1.73;1.63;;;;;;;15.34;87.19;101533.38;4976431;28;20034;-77
2021/08/22 01:53:36;;;;;;;2.53;1.50;;;;;;;15.37;87.11;101539.19;5004854;28;20137;-76
2021/08/22 01:56:02;;;;;;;2.10;1.75;;;;;;;15.32;87.01;101533.53;4988962;28;20026;-76
2021/08/22 01:58:29;;;;;;;4.10;1.70;;;;;;;15.29;87.33;101530.38;4971167;28;20044;-77
2021/08/22 02:00:55;;;;;;;1.70;1.60;;;;;;;15.33;87.07;101531.72;4958604;28;20029;-76
2021/08/22 02:03:37;;;;;;;3.55;1.70;;;;;;;15.27;88.37;101530.53;4990634;28;20026;-77
2021/08/22 02:06:18;;;;;;;3.08;1.83;;;;;;;15.31;87.44;101539.81;4975603;28;20040;-75
2021/08/22 02:08:48;;;;;;;3.25;1.63;;;;;;;15.30;87.70;101527.56;4957674;28;20042;-78
2021/08/22 02:11:21;;;;;;;1.85;1.33;;;;;;;15.36;86.86;101528.75;4990725;28;20040;-77
2021/08/22 02:13:49;;;;;;;2.38;1.90;;;;;;;15.36;86.80;101518.19;4974853;28;20033;-78
2021/08/22 02:16:20;;;;;;;3.10;1.65;;;;;;;15.33;87.11;101521.97;4990522;28;20049;-76
2021/08/22 02:18:47;;;;;;;4.72;1.58;;;;;;;15.27;87.80;101519.13;4991823;28;20042;-77
2021/08/22 02:21:14;;;;;;;5.00;1.50;;;;;;;15.19;87.60;101504.88;4991415;28;20076;-75
2021/08/22 02:23:40;;;;;;;3.35;1.63;;;;;;;15.22;87.35;101500.28;4975942;28;20037;-78
2021/08/22 02:26:08;;;;;;;4.15;1.40;;;;;;;15.15;87.81;101503.56;4979842;28;20046;-77
2021/08/22 02:28:34;;;;;;;3.17;1.60;;;;;;;15.23;87.78;101496.66;4955971;28;20029;-76
2021/08/22 02:31:00;;;;;;;2.95;1.70;;;;;;;15.14;87.37;101487.84;5006729;28;20037;-76
2021/08/22 02:33:25;;;;;;;3.92;1.60;;;;;;;15.10;88.19;101489.16;4989802;28;20533;-76
2021/08/22 02:35:51;;;;;;;2.75;1.88;;;;;;;15.03;88.34;101485.47;4965860;28;20088;-75
2021/08/22 02:38:16;;;;;;;1.63;1.50;;;;;;;14.94;89.40;101482.81;4990911;28;20032;-75
2021/08/22 02:40:42;;;;;;;3.92;2.00;;;;;;;15.00;88.10;101486.63;4990157;28;20037;-76
2021/08/22 02:43:07;;;;;;;3.83;1.58;;;;;;;14.97;87.72;101474.59;4988272;28;20076;-76
2021/08/22 02:45:33;;;;;;;6.45;1.90;;;;;;;14.93;87.60;101483.78;4969958;28;20129;-76
2021/08/22 02:48:00;;;;;;;2.35;1.83;;;;;;;14.94;87.67;101484.63;4990209;28;20030;-77
2021/08/22 02:50:26;;;;;;;5.75;2.25;;;;;;;14.90;88.20;101475.34;4974177;28;20057;-76
2021/08/22 02:52:52;;;;;;;4.20;1.77;;;;;;;14.89;87.34;101477.16;4987620;28;20045;-77
2021/08/22 02:55:18;;;;;;;2.83;2.20;;;;;;;14.88;87.46;101474.69;4970499;28;20126;-76
2021/08/22 02:57:43;;;;;;;1.85;1.73;;;;;;;14.93;87.48;101480.31;5004590;28;20069;-77
2021/08/22 03:00:09;;;;;;;2.95;1.90;;;;;;;14.85;87.06;101470.53;4973796;28;20069;-77
2021/08/22 03:02:35;;;;;;;3.55;1.73;;;;;;;14.87;86.60;101467.75;4974481;28;20030;-77
2021/08/22 03:05:02;;;;;;;2.08;1.60;;;;;;;14.90;87.41;101470.91;4991493;28;20502;-75
2021/08/22 03:07:27;;;;;;;2.20;1.50;;;;;;;14.87;87.49;101471.22;4986814;28;20068;-77
2021/08/22 03:09:53;;;;;;;3.38;1.70;;;;;;;14.84;86.86;101479.44;4986543;28;20487;-77
2021/08/22 03:12:20;;;;;;;2.85;1.70;;;;;;;14.79;87.45;101465.91;5006110;28;20422;-77
2021/08/22 03:14:45;;;;;;;5.72;2.05;;;;;;;14.73;87.78;101463.84;4974703;28;20141;-76
2021/08/22 03:17:11;;;;;;;3.72;1.55;;;;;;;14.72;87.86;101464.84;4974284;28;20112;-77
2021/08/22 03:19:36;;;;;;;2.92;1.58;;;;;;;14.77;87.03;101466.06;5003699;28;20502;-76
2021/08/22 03:22:02;;;;;;;6.18;2.15;;;;;;;14.75;87.55;101467.19;4988939;28;20022;-74
2021/08/22 03:24:28;;;;;;;2.92;1.60;;;;;;;14.75;87.46;101465.38;5006220;28;20064;-77
2021/08/22 03:26:53;;;;;;;2.65;1.50;;;;;;;14.62;87.33;101456.19;4973213;28;20048;-75
2021/08/22 03:29:19;;;;;;;4.10;1.40;;;;;;;14.65;86.81;101461.19;4973587;28;20076;-77
2021/08/22 03:31:44;;;;;;;1.80;1.70;;;;;;;14.63;87.06;101455.22;4974208;28;20049;-76
2021/08/22 03:34:10;;;;;;;2.03;1.50;;;;;;;14.52;88.30;101458.91;5003914;28;20442;-78
2021/08/22 03:36:38;;;;;;;2.22;1.80;;;;;;;14.54;87.76;101455.16;5006344;28;20034;-74
2021/08/22 03:39:05;;;;;;;5.82;1.77;;;;;;;14.50;87.95;101453.78;4991097;28;20091;-76
2021/08/22 03:41:33;;;;;;;6.07;1.50;;;;;;;14.48;87.93;101455.75;4987947;28;20105;-77
2021/08/22 03:43:59;;;;;;;3.65;1.60;;;;;;;14.51;87.58;101470.47;4998401;28;20042;-75
2021/08/22 03:46:25;;;;;;;4.75;1.55;;;;;;;14.52;87.19;101461.56;5009274;28;20033;-76
2021/08/22 03:48:51;;;;;;;3.15;1.65;;;;;;;14.50;88.34;101456.44;4996536;23;20065;-81
2021/08/22 03:51:16;;;;;;;3.47;1.73;;;;;;;14.64;87.04;101451.63;4985423;28;20512;-79
2021/08/22 03:53:42;;;;;;;2.10;1.30;;;;;;;14.67;86.05;101451.28;4968048;28;20050;-79
2021/08/22 03:56:07;;;;;;;4.30;1.65;;;;;;;14.65;87.10;101447.97;4973737;28;20030;-81
2021/08/22 03:58:33;;;;;;;5.60;1.50;;;;;;;14.65;86.14;101456.72;4956207;28;20709;-82
2021/08/22 04:01:00;;;;;;;3.53;2.05;;;;;;;14.67;86.29;101449.47;4989381;28;20041;-80
2021/08/22 04:03:27;;;;;;;1.80;1.55;;;;;;;14.70;87.06;101448.34;4955224;28;20089;-80
2021/08/22 04:06:11;;;;;;;2.15;1.83;;;;;;;14.78;86.58;101451.03;4982419;28;20428;-78
2021/08/22 04:08:39;;;;;;;6.88;1.80;;;;;;;14.69;85.87;101441.41;4969223;28;20034;-80
2021/08/22 04:11:04;;;;;;;4.18;1.40;;;;;;;14.68;86.82;101437.13;4962495;28;20037;-79
2021/08/22 04:13:30;;;;;;;1.58;1.38;;;;;;;14.67;86.70;101433.63;4965817;28;20038;-80
2021/08/22 04:15:55;;;;;;;5.20;1.48;;;;;;;14.69;86.53;101434.31;4986295;28;20140;-81
2021/08/22 04:18:20;;;;;;;4.22;1.65;;;;;;;14.67;86.69;101438.09;4956303;28;20038;-79
2021/08/22 04:20:46;;;;;;;3.17;1.75;;;;;;;14.72;86.59;101428.72;4961887;28;20034;-80
2021/08/22 04:23:12;;;;;;;2.28;1.30;;;;;;;14.77;85.99;101436.19;4991915;28;20038;-79
2021/08/22 04:25:38;;;;;;;3.15;1.90;;;;;;;14.82;86.59;101436.50;4972562;28;20018;-79
2021/08/22 04:28:06;;;;;;;2.22;1.48;;;;;;;14.84;85.45;101423.97;4991139;28;20042;-80
2021/08/22 04:30:32;;;;;;;6.07;1.90;;;;;;;14.93;85.66;101435.41;4973265;28;20045;-80
2021/08/22 04:32:58;;;;;;;2.80;1.52;;;;;;;14.90;85.66;101433.94;4942796;28;20416;-81
2021/08/22 04:35:24;;;;;;;5.72;1.77;;;;;;;14.92;85.52;101434.59;4945683;28;20467;-81
2021/08/22 04:37:49;;;;;;;2.97;1.50;;;;;;;14.95;85.33;101438.72;4975142;28;20516;-79
2021/08/22 04:40:14;;;;;;;2.70;1.40;;;;;;;14.89;85.63;101431.44;4959453;28;20049;-80
2021/08/22 04:42:40;;;;;;;2.58;1.42;;;;;;;14.90;85.44;101427.81;4974708;28;20934;-81
2021/08/22 04:45:06;;;;;;;2.40;1.40;;;;;;;14.87;85.28;101426.31;4970932;28;20030;-79
2021/08/22 04:47:32;;;;;;;3.33;1.50;;;;;;;14.93;84.46;101433.59;4982543;28;20153;-79
2021/08/22 04:49:57;;;;;;;3.20;1.20;;;;;;;15.02;84.30;101438.94;4993964;28;20129;-80
2021/08/22 04:52:23;;;;;;;2.33;1.40;;;;;;;14.99;85.05;101440.91;4959035;28;20030;-79
2021/08/22 04:54:48;;;;;;;1.77;1.30;;;;;;;15.00;84.71;101447.00;4993564;28;20038;-80
2021/08/22 04:57:13;;;;;;;3.58;1.80;;;;;;;15.02;84.64;101437.13;4944557;28;20038;-79
2021/08/22 04:59:39;;;;;;;2.85;1.50;;;;;;;15.06;83.66;101438.44;4993678;28;20048;-78
2021/08/22 05:02:05;;;;;;;3.58;1.75;;;;;;;15.17;84.44;101445.25;4987375;28;20037;-78
2021/08/22 05:04:31;;;;;;;4.35;1.33;;;;;;;15.18;83.16;101437.19;4967213;28;20072;-79
2021/08/22 05:06:57;;;;;;;2.65;1.50;;;;;;;15.24;83.03;101440.16;4963538;28;20662;-81
2021/08/22 05:09:23;;;;;;;6.45;1.30;;;;;;;15.25;83.24;101439.19;4942721;28;20038;-81
2021/08/22 05:11:48;;;;;;;3.10;1.40;;;;;;;15.33;83.14;101444.47;4974806;28;20030;-79
2021/08/22 05:14:14;;;;;;;1.50;1.30;;;;;;;15.34;83.27;101443.50;4942811;28;20512;-79
2021/08/22 05:16:41;;;;;;;2.45;1.40;;;;;;;15.34;82.68;101441.69;4966823;28;20053;-79
2021/08/22 05:19:06;;;;;;;5.30;1.50;;;;;;;15.38;83.76;101444.84;4955309;28;20034;-79
2021/08/22 05:21:32;;;;;;;2.05;1.27;;;;;;;15.33;82.95;101441.84;4956166;28;20422;-79
2021/08/22 05:23:57;;;;;;;1.80;1.30;;;;;;;15.34;83.28;101444.31;4953975;28;20034;-79
2021/08/22 05:26:23;;;;;;;3.42;1.52;;;;;;;15.41;82.83;101448.97;4979102;28;20042;-79
2021/08/22 05:28:48;;;;;;;1.42;1.20;;;;;;;15.51;81.94;101454.94;4991812;28;20062;-79
2021/08/22 05:31:14;;;;;;;2.83;1.30;;;;;;;15.49;82.26;101454.28;4996520;28;20825;-79
2021/08/22 05:33:39;;;;;;;2.25;1.50;;;;;;;15.49;82.07;101459.56;4965514;28;20072;-79
2021/08/22 05:36:20;;;;;;;2.80;1.23;;;;;;;15.43;82.31;101458.41;4997670;28;20027;-78
2021/08/22 05:38:46;;;;;;;1.83;1.42;;;;;;;15.45;82.11;101458.25;5007183;28;20043;-80
2021/08/22 05:41:12;;;;;;;3.88;1.30;;;;;;;15.36;82.89;101467.97;4959857;28;20039;-79
2021/08/22 05:43:38;;;;;;;4.50;1.20;;;;;;;15.29;83.51;101453.72;4964619;28;20160;-79
2021/08/22 05:46:04;;;;;;;3.40;1.55;;;;;;;15.26;84.42;101456.72;4987978;28;20061;-80
2021/08/22 05:48:29;;;;;;;1.38;1.27;;;;;;;15.27;83.68;101456.53;4958980;28;20042;-79
2021/08/22 05:50:55;;;;;;;3.38;1.40;;;;;;;15.12;84.65;101448.38;4975664;28;20038;-78
2021/08/22 05:53:20;;;;;;;4.28;1.45;;;;;;;15.21;86.18;101456.34;4974724;28;20092;-78
2021/08/22 05:55:46;;;;;;;3.60;1.40;;;;;;;15.14;84.55;101454.34;4983224;28;20520;-80
2021/08/22 05:58:11;;;;;;;10.02;1.42;;;;;;;15.11;84.54;101454.66;4973864;28;20058;-78
2021/08/22 06:00:37;;;;;;;3.60;1.52;;;;;;;15.18;84.76;101460.13;4957094;28;20033;-80
2021/08/22 06:03:03;;;;;;;1.83;1.55;;;;;;;15.14;84.88;101454.34;4941450;28;20034;-80
2021/08/22 06:05:29;;;;;;;1.73;1.63;;;;;;;15.07;85.49;101448.03;4973015;28;20034;-79
2021/08/22 06:07:55;;;;;;;1.77;1.33;;;;;;;15.13;85.11;101454.50;4972228;28;20049;-80
2021/08/22 06:10:21;;;;;;;2.47;1.33;;;;;;;15.21;84.04;101456.34;4957791;28;20045;-83
2021/08/22 06:12:46;;;;;;;1.33;1.20;;;;;;;15.24;84.40;101448.09;4973204;28;20404;-81
2021/08/22 06:15:12;;;;;;;2.17;1.50;;;;;;;15.20;84.47;101452.88;4943918;28;20043;-80
2021/08/22 06:17:38;;;;;;;1.73;1.35;;;;;;;15.24;84.04;101451.56;4945650;28;20030;-81
2021/08/22 06:20:05;;;;;;;2.88;1.40;;;;;;;15.21;84.77;101446.59;4959792;28;20045;-81
2021/08/22 06:22:31;;;;;;;2.63;1.50;;;;;;;15.31;84.72;101443.81;4957480;28;20208;-82
2021/08/22 06:24:56;;;;;;;2.05;1.30;;;;;;;15.37;83.63;101454.59;4955769;28;20117;-81
2021/08/22 06:27:22;;;;;;;1.60;1.45;;;;;;;15.38;82.96;101448.28;4988172;28;20038;-81
2021/08/22 06:29:47;;;;;;;1.48;1.30;;;;;;;15.47;83.75;101445.69;4971857;28;20041;-82
2021/08/22 06:32:13;;;;;;;1.33;1.20;;;;;;;15.45;81.80;101442.38;4955259;28;20023;-80
2021/08/22 06:34:39;;;;;;;2.42;1.55;;;;;;;15.60;81.79;101459.28;4977640;28;20053;-82
2021/08/22 06:37:04;;;;;;;2.42;1.45;;;;;;;15.65;81.48;101459.63;4976304;28;20060;-80
2021/08/22 06:39:30;;;;;;;1.30;1.10;;;;;;;15.74;81.71;101458.66;4959829;28;20027;-83
2021/08/22 06:41:56;;;;;;;3.05;1.48;;;;;;;15.75;83.08;101455.03;4950271;28;20556;-81
2021/08/22 06:44:22;;;;;;;2.00;1.20;;;;;;;15.81;81.76;101453.56;4953306;28;20053;-80
2021/08/22 06:46:48;;;;;;;2.85;1.70;;;;;;;15.91;82.69;101464.78;4960660;28;20153;-82
2021/08/22 06:49:14;;;;;;;2.58;1.45;;;;;;;15.91;80.83;101464.78;4992425;28;20105;-79
2021/08/22 06:51:40;;;;;;;1.63;1.40;;;;;;;15.94;80.78;101455.72;4963539;28;20046;-80
2021/08/22 06:54:05;;;;;;;1.40;1.23;;;;;;;15.90;81.74;101451.75;4992714;28;20031;-81
2021/08/22 06:56:32;;;;;;;3.65;1.58;;;;;;;15.97;80.55;101458.03;4956139;28;20130;-83
2021/08/22 06:58:57;;;;;;;4.53;1.38;;;;;;;15.92;80.11;101470.94;4943969;28;20030;-80
2021/08/22 07:01:23;;;;;;;3.28;1.48;;;;;;;15.83;81.26;101503.66;4955838;28;20038;-81
2021/08/22 07:03:48;;;;;;;2.88;1.50;;;;;;;15.87;80.98;101518.19;4943306;28;21875;-80
2021/08/22 07:06:14;;;;;;;3.42;1.35;;;;;;;15.84;82.62;101502.66;4975820;28;20088;-80
2021/08/22 07:08:39;;;;;;;3.13;1.50;;;;;;;15.88;82.12;101490.75;4959413;28;20042;-80
2021/08/22 07:11:05;;;;;;;4.45;1.60;;;;;;;15.94;80.65;101506.81;4955489;28;20034;-81
2021/08/22 07:13:30;;;;;;;1.67;1.30;;;;;;;16.11;84.00;101504.19;4970472;28;20098;-81
2021/08/22 07:15:56;;;;;;;3.85;1.48;;;;;;;16.14;80.02;101502.03;4960529;28;20615;-80
2021/08/22 07:18:21;;;;;;;3.53;1.38;;;;;;;16.25;80.41;101503.50;4962000;28;20038;-82
2021/08/22 07:20:47;;;;;;;2.25;1.40;;;;;;;16.33;80.43;101492.09;4958394;28;20498;-80
2021/08/22 07:23:12;;;;;;;1.55;1.45;;;;;;;16.38;78.58;101499.56;4958868;28;20036;-80
2021/08/22 07:25:38;;;;;;;3.15;1.60;;;;;;;16.42;78.06;101506.16;4973037;28;20105;-82
2021/08/22 07:28:03;;;;;;;1.88;1.40;;;;;;;16.24;80.16;101467.47;4972747;28;20042;-80
2021/08/22 07:30:29;;;;;;;5.32;1.40;;;;;;;16.20;82.66;101449.41;4972311;28;20053;-82
2021/08/22 07:32:56;;;;;;;1.80;1.40;;;;;;;16.34;80.21;101475.22;4968457;28;20027;-82
2021/08/22 07:35:22;;;;;;;2.63;1.67;;;;;;;16.50;79.94;101480.53;4975150;28;20058;-82
2021/08/22 07:37:47;;;;;;;1.58;1.40;;;;;;;16.58;78.11;101486.81;4942824;28;20076;-84
2021/08/22 07:40:13;;;;;;;3.28;1.35;;;;;;;16.83;78.74;101477.00;4957475;28;20038;-81
2021/08/22 07:42:38;;;;;;;5.20;1.45;;;;;;;16.98;76.90;101480.59;4992240;28;20159;-80
2021/08/22 07:45:04;;;;;;;2.40;1.50;;;;;;;17.21;76.03;101477.19;4946581;28;20073;-82
2021/08/22 07:47:30;;;;;;;4.45;1.48;;;;;;;17.34;75.24;101474.81;4956047;28;20034;-83
2021/08/22 07:49:55;;;;;;;2.47;1.35;;;;;;;17.47;74.98;101483.03;4958939;28;20037;-82
2021/08/22 07:52:24;;;;;;;2.05;1.50;;;;;;;17.51;76.12;101480.88;4959017;28;20030;-81
2021/08/22 07:54:49;;;;;;;3.83;1.80;;;;;;;17.48;74.81;101491.84;4976849;28;20722;-82
2021/08/22 07:57:19;;;;;;;1.80;1.30;;;;;;;17.41;74.77;101483.75;4959833;28;20114;-81
2021/08/22 07:59:45;;;;;;;4.97;1.65;;;;;;;17.35;74.36;101479.13;4969422;28;20157;-82
2021/08/22 08:02:10;;;;;;;2.03;1.20;;;;;;;17.43;76.30;101483.56;4958622;28;20034;-82
2021/08/22 08:04:36;;;;;;;1.65;1.48;;;;;;;17.41;75.15;101483.75;4969844;28;20134;-81
2021/08/22 08:07:01;;;;;;;1.55;1.40;;;;;;;17.32;74.32;101482.94;4957754;28;20065;-82
2021/08/22 08:09:27;;;;;;;3.72;1.40;;;;;;;17.36;73.54;101491.38;4958742;28;20027;-83
2021/08/22 08:11:52;;;;;;;3.63;1.70;;;;;;;17.35;76.09;101481.78;4959200;28;20065;-82
2021/08/22 08:14:18;;;;;;;2.72;1.65;;;;;;;17.41;75.99;101485.56;4947274;28;20052;-81
2021/08/22 08:16:43;;;;;;;1.65;1.40;;;;;;;17.48;75.18;101491.84;4986723;28;20061;-80
2021/08/22 08:19:09;;;;;;;1.63;1.40;;;;;;;17.55;74.11;101490.13;4977470;28;20077;-80
2021/08/22 08:21:34;;;;;;;2.40;1.30;;;;;;;17.49;73.10;101483.69;4973045;28;20053;-79
2021/08/22 08:24:00;;;;;;;2.78;1.73;;;;;;;17.43;74.75;101480.91;4955130;28;20038;-79
2021/08/22 08:26:26;;;;;;;2.13;1.23;;;;;;;17.34;74.27;101474.81;4957522;28;20465;-79
2021/08/22 08:28:51;;;;;;;1.88;1.50;;;;;;;17.32;74.67;101482.13;4938654;28;20043;-81
2021/08/22 08:31:17;;;;;;;2.42;1.50;;;;;;;17.29;73.34;101478.00;4958144;28;20496;-79
2021/08/22 08:33:42;;;;;;;1.77;1.60;;;;;;;17.23;73.73;101477.84;4959153;28;20042;-81
2021/08/22 08:36:08;;;;;;;6.75;2.10;;;;;;;17.22;73.67;101473.56;4955939;28;20027;-80
2021/08/22 08:38:33;;;;;;;5.40;1.70;;;;;;;17.30;74.43;101489.44;4959413;28;20046;-82
2021/08/22 08:41:00;;;;;;;3.88;1.60;;;;;;;17.30;72.60;101492.06;4942961;28;20469;-83
2021/08/22 08:43:26;;;;;;;2.75;1.45;;;;;;;17.35;73.63;101486.25;4974731;28;20026;-80
2021/08/22 08:46:21;;;;;;;2.15;1.48;;;;;;;17.41;72.84;101494.34;4956531;28;20085;-83
2021/08/22 08:49:02;;;;;;;1.30;1.20;;;;;;;17.40;73.61;101495.34;4972670;28;20066;-82
2021/08/22 08:51:54;;;;;;;4.78;1.25;;;;;;;17.41;73.56;101497.00;4974912;28;20034;-81
2021/08/22 08:54:53;;;;;;;3.00;1.60;;;;;;;17.36;72.69;101493.22;4976848;28;20030;-81
2021/08/22 08:57:19;;;;;;;3.20;1.47;;;;;;;17.30;74.01;101500.84;4977607;28;20102;-82
2021/08/22 08:59:44;;;;;;;2.92;1.35;;;;;;;17.22;73.60;101492.13;4978696;28;20641;-82
2021/08/22 09:02:10;;;;;;;5.60;1.50;;;;;;;17.31;75.14;101499.88;4947074;28;20034;-80
2021/08/22 09:04:41;;;;;;;1.77;1.50;;;;;;;17.33;74.17;101507.66;4976473;28;20109;-82
2021/08/22 09:07:30;;;;;;;2.05;1.80;;;;;;;17.26;74.04;101502.19;4963697;28;21062;-81
2021/08/22 09:10:11;;;;;;;3.05;1.45;;;;;;;17.35;72.80;101502.16;4971613;28;20034;-81
2021/08/22 09:13:18;;;;;;;6.68;1.70;;;;;;;17.36;72.80;101504.63;4960403;28;20097;-80
2021/08/22 09:16:02;;;;;;;2.85;1.80;;;;;;;17.36;75.47;101506.47;4943146;28;20129;-80
2021/08/22 09:19:06;;;;;;;1.92;1.60;;;;;;;17.35;73.98;101512.75;4990751;28;20559;-80
2021/08/22 09:21:50;;;;;;;2.55;1.40;;;;;;;17.29;73.29;101508.97;4970607;28;20066;-80
2021/08/22 09:24:31;;;;;;;4.10;1.30;;;;;;;17.19;75.46;101509.19;4971531;28;20046;-83
2021/08/22 09:27:34;;;;;;;4.82;1.80;;;;;;;17.21;74.21;101512.47;4959305;28;20030;-80
2021/08/22 09:30:22;;;;;;;3.83;1.60;;;;;;;17.17;76.03;101513.81;4954985;28;20500;-78
2021/08/22 09:33:23;;;;;;;3.80;1.52;;;;;;;17.18;74.38;101515.50;4971553;28;20026;-81
2021/08/22 09:36:22;;;;;;;1.63;1.52;;;;;;;17.05;77.54;101516.03;4975447;28;20060;-80
2021/08/22 09:39:26;;;;;;;2.78;1.58;;;;;;;17.01;76.72;101517.38;4990434;28;20037;-81
2021/08/22 09:42:10;;;;;;;;;;;;;;;16.90;76.91;101523.03;4956552;28;20030;-81
2021/08/22 09:45:15;;;;;;;2.63;1.50;;;;;;;16.74;80.50;101529.13;4967080;28;19925;-81
2021/08/22 09:48:16;;;;;;;3.50;1.85;;;;;;;16.44;82.13;101534.13;4975116;28;20235;-82
2021/08/22 09:51:18;;;;;;;4.75;2.10;;;;;;;16.17;86.65;101539.75;4990757;28;20476;-82
2021/08/22 09:54:21;;;;;;;5.03;2.17;;;;;;;15.79;90.48;101539.34;4957901;28;20109;-82
2021/08/22 09:57:06;;;;;;;;;;;;;;;15.60;95.89;101529.84;4961786;28;20042;-81
2021/08/22 10:00:16;;;;;;;5.22;2.58;;;;;;;15.34;96.82;101525.44;4957357;28;19965;-80
2021/08/22 10:03:06;;;;;;;3.60;2.63;;;;;;;15.27;100.00;101527.88;4950621;28;20039;-81
2021/08/22 10:05:58;;;;;;;6.78;2.60;;;;;;;15.37;100.00;101531.25;4973918;28;20042;-81
2021/08/22 10:08:40;;;;;;;3.38;2.83;;;;;;;15.38;100.00;101527.59;4957441;28;20027;-83
2021/08/22 10:11:08;;;;;;;;;;;;;;;15.51;100.00;101531.63;4971147;28;20477;-82
2021/08/22 10:13:36;;;;;;;6.80;2.72;;;;;;;15.58;100.00;101532.66;4989959;28;19928;-81
2021/08/22 10:16:02;;;;;;;4.57;2.80;;;;;;;15.67;100.00;101536.97;4956889;28;20057;-81
2021/08/22 10:18:28;;;;;;;3.28;2.80;;;;;;;15.77;100.00;101537.69;4938837;28;20035;-82
2021/08/22 10:21:02;;;;;;;2.55;2.28;;;;;;;15.85;99.84;101536.06;4990394;28;20093;-81
2021/08/22 10:23:42;;;;;;;2.30;2.10;;;;;;;15.97;99.22;101540.03;4957699;28;20109;-80
2021/08/22 10:26:09;;;;;;;3.08;2.13;;;;;;;16.03;98.22;101533.25;4942801;28;20467;-83
2021/08/22 10:28:44;;;;;;;3.50;2.40;;;;;;;16.10;96.05;101532.44;4973929;28;20036;-80
2021/08/22 10:31:10;;;;;;;5.70;2.53;;;;;;;16.16;96.89;101541.56;4941913;28;20045;-81
2021/08/22 10:33:38;;;;;;;3.72;2.42;;;;;;;16.19;98.44;101543.88;4957897;28;20030;-80
2021/08/22 10:36:27;;;;;;;4.30;2.60;;;;;;;16.30;97.83;101542.75;4975009;28;20054;-81
2021/08/22 10:39:21;;;;;;;4.13;2.45;;;;;;;16.29;98.00;101544.56;4973109;28;20056;-83
2021/08/22 10:41:48;;;;;;;3.97;2.47;;;;;;;16.26;97.70;101550.19;4959808;28;20332;-80
2021/08/22 10:44:32;;;;;;;4.95;2.53;;;;;;;16.30;99.13;101553.34;4978585;28;20022;-79
2021/08/22 10:47:02;;;;;;;4.00;2.25;;;;;;;16.28;97.49;101550.84;4960764;28;20104;-80
2021/08/22 10:49:52;;;;;;;3.97;2.17;;;;;;;16.23;95.58;101547.84;4964292;28;20038;-80
2021/08/22 10:52:23;;;;;;;3.90;2.25;;;;;;;16.27;98.02;101556.28;4946351;28;20034;-78
2021/08/22 10:55:10;;;;;;;2.55;2.35;;;;;;;16.36;100.00;101555.31;4963055;28;20050;-80
2021/08/22 10:57:48;;;;;;;6.10;2.88;;;;;;;16.34;99.67;101559.94;4960541;28;20057;-80
2021/08/22 11:00:28;;;;;;;6.72;2.70;;;;;;;16.41;100.00;101560.13;4960524;28;20092;-79
2021/08/22 11:02:55;;;;;;;3.28;2.40;;;;;;;16.33;94.32;101560.91;4994779;28;20035;-79
2021/08/22 11:05:24;;;;;;;3.33;2.50;;;;;;;16.28;94.03;101561.44;4961200;28;20125;-80
2021/08/22 11:07:54;;;;;;;4.32;2.40;;;;;;;16.14;96.19;101548.81;4977308;28;20062;-79
2021/08/22 11:10:22;;;;;;;4.57;2.58;;;;;;;16.14;97.05;101557.63;4960262;28;20030;-79
2021/08/22 11:12:50;;;;;;;4.10;2.70;;;;;;;16.21;99.82;101565.72;4961938;28;20030;-79
2021/08/22 11:15:25;;;;;;;4.95;2.85;;;;;;;16.21;100.00;101560.41;4974366;28;20040;-78
2021/08/22 11:17:53;;;;;;;3.85;2.63;;;;;;;16.01;100.00;101565.22;4976416;28;20102;-79
2021/08/22 11:20:20;;;;;;;4.30;3.33;;;;;;;16.14;100.00;101562.91;4992083;28;20041;-79
2021/08/22 11:22:47;;;;;;;4.57;3.20;;;;;;;16.17;100.00;101561.75;4950653;28;20165;-79
2021/08/22 11:25:14;;;;;;;5.47;3.03;;;;;;;16.18;100.00;101563.41;4972366;28;20034;-78
2021/08/22 11:27:40;;;;;;;5.18;3.28;;;;;;;16.17;98.98;101563.56;4976066;28;20134;-79
2021/08/22 11:30:10;;;;;;;3.03;2.70;;;;;;;16.15;100.00;101561.09;4975981;28;20061;-78
2021/08/22 11:32:38;;;;;;;3.85;2.50;;;;;;;16.16;100.00;101570.66;4975787;28;20057;-79
2021/08/22 11:35:18;;;;;;;3.80;2.92;;;;;;;16.22;100.00;101571.84;4974677;28;20489;-78
2021/08/22 11:37:45;;;;;;;4.35;2.90;;;;;;;16.24;100.00;101569.88;4958745;28;20556;-79